Time;durP1;ratioP1;P1;durP2;ratioP2;P2;SDS_P1;SDS_P2;PMS_P1;PMS_P2;Temp;Humidity;BMP_temperature;BMP_pressure;BME280_temperature;BME280_humidity;BME280_pressure;Samples;Min_cycle;Max_cycle;Signal;HPM_P1;HPM_P2
2022/11/20 00:01:20;;;;;;;19.70;11.47;;;0.00;99.90;;;;;;5076214;28;20715;-77
2022/11/20 00:03:46;;;;;;;18.43;11.73;;;0.00;99.90;;;;;;5078173;28;20161;-77
2022/11/20 00:06:14;;;;;;;15.27;10.50;;;0.10;99.90;;;;;;5077482;28;20182;-77
2022/11/20 00:08:40;;;;;;;18.17;11.10;;;0.10;99.90;;;;;;5076675;28;20621;-76
2022/11/20 00:11:07;;;;;;;15.80;11.07;;;0.10;99.90;;;;;;5077709;28;20181;-77
2022/11/20 00:13:34;;;;;;;16.13;11.10;;;0.10;99.90;;;;;;5076979;28;20175;-76
2022/11/20 00:16:02;;;;;;;18.13;12.00;;;0.10;99.90;;;;;;5077504;28;20609;-77
2022/11/20 00:18:28;;;;;;;17.10;10.60;;;0.10;99.90;;;;;;5076242;28;20174;-76
2022/11/20 00:20:59;;;;;;;17.30;11.00;;;0.10;99.90;;;;;;5077206;28;20169;-77
2022/11/20 00:23:25;;;;;;;19.83;10.57;;;0.20;99.90;;;;;;5076044;28;20179;-77
2022/11/20 00:25:50;;;;;;;16.83;10.67;;;0.20;99.90;;;;;;5075893;28;20174;-77
2022/11/20 00:28:16;;;;;;;21.73;11.20;;;0.20;99.90;;;;;;5077192;28;20170;-77
2022/11/20 00:30:41;;;;;;;15.77;11.03;;;0.20;99.90;;;;;;5075863;28;20198;-76
2022/11/20 00:33:07;;;;;;;16.93;10.27;;;0.20;99.90;;;;;;5076956;28;20254;-77
2022/11/20 00:35:32;;;;;;;17.87;11.40;;;0.20;99.90;;;;;;5075545;28;20260;-76
2022/11/20 00:37:58;;;;;;;17.47;10.77;;;0.30;99.90;;;;;;5074751;28;20245;-76
2022/11/20 00:40:23;;;;;;;17.63;10.80;;;0.30;99.90;;;;;;5039307;28;1030825;-76
2022/11/20 00:42:49;;;;;;;18.30;11.37;;;0.30;99.90;;;;;;5074147;28;20583;-76
2022/11/20 00:45:14;;;;;;;18.33;10.63;;;0.40;99.90;;;;;;5074175;28;20170;-77
2022/11/20 00:47:40;;;;;;;17.37;11.90;;;0.50;99.90;;;;;;5074200;28;20231;-76
2022/11/20 00:50:06;;;;;;;15.90;10.47;;;0.40;99.90;;;;;;5075261;28;20281;-77
2022/11/20 00:52:31;;;;;;;16.53;10.83;;;0.50;99.90;;;;;;5075178;28;20248;-76
2022/11/20 00:54:57;;;;;;;16.00;10.67;;;0.50;99.90;;;;;;5074061;28;20727;-76
2022/11/20 00:57:22;;;;;;;17.70;11.17;;;0.50;99.90;;;;;;5075777;28;20183;-75
2022/11/20 00:59:48;;;;;;;15.33;10.07;;;0.60;99.90;;;;;;5076009;28;20202;-78
2022/11/20 01:02:15;;;;;;;17.47;11.43;;;0.60;99.90;;;;;;5075536;28;20651;-77
2022/11/20 01:04:40;;;;;;;17.80;11.40;;;0.60;99.90;;;;;;5075405;28;20542;-76
2022/11/20 01:07:06;;;;;;;19.60;12.13;;;0.70;99.90;;;;;;5073522;28;20267;-76
2022/11/20 01:09:31;;;;;;;20.50;11.57;;;0.70;99.90;;;;;;5074309;28;20209;-77
2022/11/20 01:11:57;;;;;;;17.57;10.37;;;0.70;99.90;;;;;;5074128;28;20268;-77
2022/11/20 01:14:23;;;;;;;16.77;10.73;;;0.70;99.90;;;;;;5075330;28;20171;-76
2022/11/20 01:16:50;;;;;;;16.73;10.83;;;0.70;99.90;;;;;;5075909;28;20174;-76
2022/11/20 01:19:19;;;;;;;19.77;10.63;;;0.80;99.90;;;;;;5074017;28;20576;-76
2022/11/20 01:21:47;;;;;;;13.87;10.17;;;0.80;99.90;;;;;;5075432;28;20288;-76
2022/11/20 01:24:15;;;;;;;17.03;10.93;;;0.80;99.90;;;;;;5075298;28;20197;-76
2022/11/20 01:26:42;;;;;;;15.77;10.63;;;0.80;99.90;;;;;;5075205;28;20166;-76
2022/11/20 01:29:14;;;;;;;15.33;10.67;;;0.80;99.90;;;;;;5074158;28;20557;-76
2022/11/20 01:31:39;;;;;;;15.77;11.33;;;0.80;99.90;;;;;;5073906;28;20623;-75
2022/11/20 01:34:14;;;;;;;19.73;12.40;;;0.90;99.90;;;;;;5073598;28;20189;-76
2022/11/20 01:36:41;;;;;;;16.87;10.67;;;0.90;99.90;;;;;;5074762;28;20170;-76
2022/11/20 01:39:12;;;;;;;16.63;11.27;;;0.90;99.90;;;;;;5073582;28;20213;-76
2022/11/20 01:44:48;;;;;;;19.17;11.40;;;0.90;99.90;;;;;;5074825;28;20165;-76
2022/11/20 01:47:17;;;;;;;21.33;11.00;;;0.90;99.90;;;;;;5073540;28;20167;-76
2022/11/20 01:49:49;;;;;;;18.80;11.50;;;0.90;99.90;;;;;;5074673;28;20187;-76
2022/11/20 01:52:19;;;;;;;15.77;11.03;;;1.00;99.90;;;;;;5073213;28;20249;-76
2022/11/20 01:55:01;;;;;;;16.37;10.57;;;1.00;99.90;;;;;;5074493;28;20637;-76
2022/11/20 01:57:29;;;;;;;15.00;10.43;;;1.00;99.90;;;;;;5073194;28;20646;-76
2022/11/20 02:00:00;;;;;;;16.43;10.53;;;1.10;99.90;;;;;;5074585;28;20199;-74
2022/11/20 02:02:27;;;;;;;21.77;11.73;;;1.10;99.90;;;;;;5072915;28;20197;-75
2022/11/20 02:04:56;;;;;;;20.30;10.77;;;1.10;99.90;;;;;;5073719;28;20178;-75
2022/11/20 02:07:23;;;;;;;16.07;11.40;;;1.10;99.90;;;;;;5074167;28;20215;-75
2022/11/20 02:09:48;;;;;;;17.73;10.50;;;1.10;99.90;;;;;;5072564;28;20228;-75
2022/11/20 02:13:42;;;;;;;16.93;11.00;;;1.20;99.90;;;;;;5072532;28;20210;-75
2022/11/20 02:15:00;;;;;;;13.73;10.13;;;1.20;99.90;;;;;;5073834;28;20671;-75
2022/11/20 02:17:26;;;;;;;20.10;11.53;;;1.20;99.90;;;;;;5072894;28;20186;-75
2022/11/20 02:19:52;;;;;;;16.33;11.27;;;1.20;99.90;;;;;;5072855;28;20683;-74
2022/11/20 02:22:28;;;;;;;18.23;10.43;;;1.20;99.90;;;;;;5074013;28;20190;-75
2022/11/20 02:24:54;;;;;;;16.13;10.40;;;1.30;99.90;;;;;;5072797;28;20649;-75
2022/11/20 02:27:20;;;;;;;18.93;11.37;;;1.30;99.90;;;;;;5073943;28;20266;-75
2022/11/20 02:29:56;;;;;;;15.33;10.13;;;1.30;99.90;;;;;;5073992;28;20277;-75
2022/11/20 02:32:41;;;;;;;16.30;11.57;;;1.30;99.90;;;;;;5074022;28;20181;-74
2022/11/20 02:35:27;;;;;;;16.70;9.90;;;1.30;99.90;;;;;;5074083;28;20202;-75
2022/11/20 02:37:54;;;;;;;16.77;10.33;;;1.30;99.90;;;;;;5059765;28;20548;-75
2022/11/20 02:40:20;;;;;;;15.27;10.93;;;1.40;99.90;;;;;;5073920;28;20221;-74
2022/11/20 02:42:46;;;;;;;14.70;10.07;;;1.30;99.90;;;;;;5073450;28;20228;-75
2022/11/20 02:45:11;;;;;;;15.10;10.40;;;1.40;99.90;;;;;;5072534;28;20269;-75
2022/11/20 02:47:37;;;;;;;16.73;10.27;;;1.40;99.90;;;;;;5072118;28;20250;-74
2022/11/20 02:50:04;;;;;;;15.77;10.03;;;1.40;99.90;;;;;;5072187;28;20204;-74
2022/11/20 02:52:30;;;;;;;16.47;10.67;;;1.40;99.90;;;;;;5073872;28;20174;-74
2022/11/20 02:54:55;;;;;;;14.97;9.77;;;1.40;99.90;;;;;;5073784;28;20629;-74
2022/11/20 02:57:21;;;;;;;13.20;9.73;;;1.40;99.90;;;;;;5073434;28;20188;-74
2022/11/20 02:59:46;;;;;;;19.33;10.43;;;1.40;99.90;;;;;;5073532;28;20220;-74
2022/11/20 03:02:12;;;;;;;13.03;9.10;;;1.40;99.90;;;;;;5073314;28;20198;-74
2022/11/20 03:04:37;;;;;;;12.43;9.47;;;1.40;99.90;;;;;;5072122;28;20221;-74
2022/11/20 03:07:04;;;;;;;16.03;9.63;;;1.40;99.90;;;;;;5073045;28;20182;-74
2022/11/20 03:09:29;;;;;;;15.17;10.07;;;1.40;99.90;;;;;;5072993;28;20726;-74
2022/11/20 03:11:55;;;;;;;15.40;10.33;;;1.40;99.90;;;;;;5073258;28;20190;-74
2022/11/20 03:14:20;;;;;;;16.17;10.00;;;1.40;99.90;;;;;;5071473;28;20186;-74
2022/11/20 03:16:46;;;;;;;16.30;9.87;;;1.50;99.90;;;;;;5071942;28;20395;-74
2022/11/20 03:19:13;;;;;;;17.83;10.60;;;1.50;99.90;;;;;;5072562;28;20203;-74
2022/11/20 03:21:39;;;;;;;18.43;11.00;;;1.50;99.90;;;;;;5071672;28;20235;-74
2022/11/20 03:24:05;;;;;;;14.20;10.53;;;1.50;99.90;;;;;;5073388;28;20304;-74
2022/11/20 03:26:31;;;;;;;15.37;10.33;;;1.50;99.90;;;;;;5072969;28;20641;-74
2022/11/20 03:28:59;;;;;;;15.03;10.83;;;1.50;99.90;;;;;;5073437;28;20273;-75
2022/11/20 03:31:27;;;;;;;18.43;10.70;;;1.50;99.90;;;;;;5071828;28;20240;-75
2022/11/20 03:33:53;;;;;;;14.47;10.33;;;1.50;99.90;;;;;;5071874;28;20179;-75
2022/11/20 03:36:20;;;;;;;13.80;9.57;;;1.50;99.90;;;;;;5071856;28;20179;-75
2022/11/20 03:38:46;;;;;;;17.70;11.00;;;1.60;99.90;;;;;;5072876;28;20237;-75
2022/11/20 03:41:15;;;;;;;17.37;10.60;;;1.60;99.90;;;;;;5073445;28;20166;-75
2022/11/20 03:43:41;;;;;;;16.03;9.23;;;1.60;99.90;;;;;;5072024;28;20636;-74
2022/11/20 03:46:07;;;;;;;17.30;11.13;;;1.60;99.90;;;;;;5073664;28;20174;-76
2022/11/20 03:48:32;;;;;;;19.33;11.07;;;1.60;99.90;;;;;;5071768;28;20529;-76
2022/11/20 03:51:10;;;;;;;15.83;10.50;;;1.60;99.90;;;;;;5071493;28;20182;-76
2022/11/20 03:53:35;;;;;;;16.13;11.03;;;1.60;99.90;;;;;;5072901;28;20171;-76
2022/11/20 03:59:35;;;;;;;16.20;10.67;;;1.60;99.90;;;;;;5072678;28;20202;-75
2022/11/20 04:02:01;;;;;;;16.20;10.90;;;1.70;99.90;;;;;;5072658;28;20208;-75
2022/11/20 04:04:26;;;;;;;15.60;10.93;;;1.70;99.90;;;;;;5071684;28;20609;-75
2022/11/20 04:06:52;;;;;;;19.10;11.23;;;1.70;99.90;;;;;;5071366;28;20170;-75
2022/11/20 04:09:17;;;;;;;16.60;10.87;;;1.70;99.90;;;;;;5072754;28;20240;-75
2022/11/20 04:11:43;;;;;;;17.53;11.43;;;1.70;99.90;;;;;;5072391;28;20178;-75
2022/11/20 04:14:14;;;;;;;17.73;11.17;;;1.70;99.90;;;;;;5072660;28;20183;-75
2022/11/20 04:16:40;;;;;;;17.57;11.00;;;1.70;99.90;;;;;;5072276;28;20171;-74
2022/11/20 04:19:10;;;;;;;15.70;10.50;;;1.70;99.90;;;;;;5070967;28;20210;-75
2022/11/20 04:21:35;;;;;;;13.70;10.20;;;1.80;99.90;;;;;;5070950;28;20260;-75
2022/11/20 04:24:01;;;;;;;16.93;11.13;;;1.80;99.90;;;;;;5070895;28;20179;-75
2022/11/20 04:26:28;;;;;;;18.47;11.17;;;1.80;99.90;;;;;;5072265;28;20228;-75
2022/11/20 04:28:54;;;;;;;15.90;11.03;;;1.80;99.90;;;;;;5075415;28;20282;-73
2022/11/20 04:31:32;;;;;;;17.97;10.63;;;1.80;99.90;;;;;;5075967;28;20190;-75
2022/11/20 04:34:03;;;;;;;18.43;11.03;;;1.80;99.90;;;;;;5074828;28;20189;-75
2022/11/20 04:36:30;;;;;;;15.33;11.17;;;1.80;99.90;;;;;;5075873;28;20226;-75
2022/11/20 04:38:57;;;;;;;19.77;12.33;;;1.90;99.90;;;;;;5074312;28;20248;-76
2022/11/20 04:41:25;;;;;;;19.20;12.23;;;1.80;99.90;;;;;;5074794;28;20186;-76
2022/11/20 04:43:58;;;;;;;19.97;12.77;;;1.80;99.90;;;;;;5074863;28;20174;-76
2022/11/20 04:46:25;;;;;;;19.80;11.77;;;1.80;99.90;;;;;;5074828;28;20221;-76
2022/11/20 04:48:50;;;;;;;21.30;12.20;;;1.70;99.90;;;;;;5075982;28;20542;-76
2022/11/20 04:51:15;;;;;;;17.07;12.33;;;1.70;99.90;;;;;;5076258;28;20178;-75
2022/11/20 04:53:41;;;;;;;23.33;13.33;;;1.80;99.90;;;;;;5075623;28;20179;-75
2022/11/20 04:56:09;;;;;;;16.87;11.50;;;1.80;99.90;;;;;;5075590;28;20178;-75
2022/11/20 04:58:35;;;;;;;20.13;12.90;;;1.80;99.90;;;;;;5075493;28;20190;-75
2022/11/20 05:01:06;;;;;;;24.10;13.67;;;1.80;99.90;;;;;;5075680;28;20171;-76
2022/11/20 05:03:31;;;;;;;17.33;10.47;;;1.80;99.90;;;;;;5074155;28;20685;-75
2022/11/20 05:06:00;;;;;;;20.67;12.13;;;1.90;99.90;;;;;;5075702;28;20206;-76
2022/11/20 05:08:26;;;;;;;16.37;10.47;;;1.90;99.90;;;;;;5074124;28;20170;-75
2022/11/20 05:10:51;;;;;;;14.10;10.00;;;1.90;99.90;;;;;;5074175;28;20247;-76
2022/11/20 05:13:17;;;;;;;18.50;11.47;;;2.00;99.90;;;;;;5074042;28;20277;-75
2022/11/20 05:15:42;;;;;;;16.27;10.67;;;1.90;99.90;;;;;;5075836;28;20268;-76
2022/11/20 05:18:08;;;;;;;16.83;11.83;;;2.00;99.90;;;;;;5073705;28;20653;-75
2022/11/20 05:20:35;;;;;;;14.73;10.67;;;2.00;99.90;;;;;;5073481;28;20324;-75
2022/11/20 05:23:01;;;;;;;20.03;12.70;;;2.00;99.90;;;;;;5073582;28;20199;-76
2022/11/20 05:25:27;;;;;;;17.03;11.93;;;2.00;99.90;;;;;;5073595;28;20171;-76
2022/11/20 05:27:53;;;;;;;20.10;12.23;;;2.00;99.90;;;;;;5075047;28;20182;-75
2022/11/20 05:30:18;;;;;;;17.00;11.73;;;2.00;99.90;;;;;;5074723;28;20183;-75
2022/11/20 05:32:44;;;;;;;17.10;11.37;;;2.00;99.90;;;;;;5075032;28;20266;-75
2022/11/20 05:35:10;;;;;;;14.63;10.70;;;2.00;99.90;;;;;;5074603;28;20174;-75
2022/11/20 05:37:35;;;;;;;16.03;10.40;;;2.00;99.90;;;;;;5074455;28;20174;-76
2022/11/20 05:40:01;;;;;;;16.03;10.20;;;2.00;99.90;;;;;;5097579;22;20600;-79
2022/11/20 05:42:32;;;;;;;14.93;10.10;;;2.00;99.90;;;;;;5076003;28;20205;-79
2022/11/20 05:45:03;;;;;;;15.93;9.97;;;2.10;99.90;;;;;;5075604;28;20173;-78
2022/11/20 05:47:32;;;;;;;15.20;10.43;;;2.00;99.90;;;;;;5076373;28;20202;-79
2022/11/20 05:49:58;;;;;;;18.27;10.47;;;2.00;99.90;;;;;;5077141;28;20195;-79
2022/11/20 05:52:23;;;;;;;16.13;10.97;;;2.00;99.90;;;;;;5077159;28;20197;-79
2022/11/20 05:54:49;;;;;;;15.23;10.43;;;2.00;99.90;;;;;;5092545;28;20174;-79
2022/11/20 05:57:14;;;;;;;15.20;9.83;;;2.10;99.90;;;;;;5076783;28;20258;-79
2022/11/20 05:59:40;;;;;;;15.57;11.07;;;2.10;99.90;;;;;;5076518;28;20688;-79
2022/11/20 06:02:05;;;;;;;14.67;9.73;;;2.10;99.90;;;;;;5075439;28;20241;-80
2022/11/20 06:04:31;;;;;;;16.97;10.13;;;2.10;99.90;;;;;;5092320;28;20171;-79
2022/11/20 06:06:56;;;;;;;16.20;10.33;;;2.00;99.90;;;;;;5092208;28;20166;-79
2022/11/20 06:09:22;;;;;;;17.30;10.33;;;2.00;99.90;;;;;;5075129;28;20214;-79
2022/11/20 06:11:47;;;;;;;14.47;11.03;;;2.00;99.90;;;;;;5075496;28;20242;-78
2022/11/20 06:14:13;;;;;;;16.53;10.80;;;2.00;99.90;;;;;;5076855;28;20175;-79
2022/11/20 06:16:38;;;;;;;15.40;10.83;;;2.00;99.90;;;;;;5076993;28;20243;-78
2022/11/20 06:19:04;;;;;;;15.40;10.60;;;2.00;99.90;;;;;;5076838;28;20673;-79
2022/11/20 06:21:29;;;;;;;16.70;10.90;;;2.10;99.90;;;;;;5075568;28;20178;-80
2022/11/20 06:23:55;;;;;;;15.70;11.00;;;2.00;99.90;;;;;;5077338;28;20160;-78
2022/11/20 06:26:23;;;;;;;18.10;11.33;;;2.10;99.90;;;;;;5077300;28;20246;-80
2022/11/20 06:28:50;;;;;;;15.50;10.83;;;2.00;99.90;;;;;;5077502;28;20189;-80
2022/11/20 06:31:18;;;;;;;16.77;10.47;;;2.00;99.90;;;;;;5077146;28;20685;-78
2022/11/20 06:33:44;;;;;;;14.67;10.63;;;2.00;99.90;;;;;;5077795;28;20170;-79
2022/11/20 06:36:12;;;;;;;17.37;10.57;;;2.00;99.90;;;;;;5079515;28;20174;-78
2022/11/20 06:38:38;;;;;;;16.87;10.97;;;2.00;99.90;;;;;;5079124;28;20189;-78
2022/11/20 06:41:06;;;;;;;15.07;10.83;;;2.10;99.90;;;;;;5075041;28;20294;-78
2022/11/20 06:43:31;;;;;;;16.67;11.17;;;2.00;99.90;;;;;;5074281;28;20201;-77
2022/11/20 06:45:58;;;;;;;19.60;11.63;;;2.10;99.90;;;;;;5074761;28;20171;-79
2022/11/20 06:48:28;;;;;;;18.10;11.90;;;2.00;99.90;;;;;;5074214;28;20163;-78
2022/11/20 06:50:54;;;;;;;17.30;11.73;;;2.00;99.90;;;;;;5074257;28;20206;-78
2022/11/20 06:53:19;;;;;;;18.73;11.80;;;2.00;99.90;;;;;;5072792;28;20648;-79
2022/11/20 06:55:46;;;;;;;14.90;10.77;;;2.00;99.90;;;;;;5074567;28;20618;-79
2022/11/20 06:58:13;;;;;;;16.67;11.93;;;2.10;99.90;;;;;;5074334;28;20551;-78
2022/11/20 07:00:39;;;;;;;27.50;10.83;;;2.10;99.90;;;;;;5074265;28;20187;-78
2022/11/20 07:03:06;;;;;;;17.43;10.73;;;2.10;99.90;;;;;;5089817;28;20209;-78
2022/11/20 07:05:32;;;;;;;17.27;11.77;;;2.10;99.90;;;;;;5074384;28;20179;-79
2022/11/20 07:07:58;;;;;;;16.33;11.13;;;2.10;99.90;;;;;;5074883;28;20672;-79
2022/11/20 07:10:24;;;;;;;17.77;11.33;;;2.10;99.90;;;;;;5073655;28;20199;-77
2022/11/20 07:12:51;;;;;;;17.83;12.50;;;2.10;99.90;;;;;;5089591;28;20174;-78
2022/11/20 07:15:17;;;;;;;18.90;12.67;;;2.10;99.90;;;;;;5074188;28;20169;-78
2022/11/20 07:17:43;;;;;;;16.90;11.90;;;2.10;99.90;;;;;;5089876;28;20179;-78
2022/11/20 07:20:09;;;;;;;18.77;12.63;;;2.10;99.90;;;;;;5072544;28;20190;-79
2022/11/20 07:22:34;;;;;;;17.63;12.17;;;2.10;99.90;;;;;;5088452;28;20289;-76
2022/11/20 07:25:00;;;;;;;19.33;12.30;;;2.10;99.90;;;;;;5071448;28;20261;-76
2022/11/20 07:27:25;;;;;;;18.60;12.80;;;2.10;99.90;;;;;;5072060;28;20178;-75
2022/11/20 07:29:51;;;;;;;21.23;12.50;;;2.10;99.90;;;;;;5072943;28;20218;-76
2022/11/20 07:32:16;;;;;;;17.57;12.27;;;2.10;99.90;;;;;;5072715;28;20186;-76
2022/11/20 07:34:42;;;;;;;19.43;12.70;;;2.10;99.90;;;;;;5072557;28;20641;-77
2022/11/20 07:37:08;;;;;;;19.07;12.70;;;2.10;99.90;;;;;;5071242;28;20179;-76
2022/11/20 07:39:33;;;;;;;17.70;12.43;;;2.10;99.90;;;;;;5072231;28;20194;-76
2022/11/20 07:41:59;;;;;;;23.20;13.57;;;2.00;99.90;;;;;;5071095;28;20199;-75
2022/11/20 07:44:24;;;;;;;23.67;13.03;;;2.00;99.90;;;;;;5071742;28;20261;-77
2022/11/20 07:46:50;;;;;;;20.83;14.20;;;2.00;99.90;;;;;;5073443;28;20174;-78
2022/11/20 07:49:15;;;;;;;24.23;12.90;;;2.00;99.90;;;;;;5073629;28;20637;-78
2022/11/20 07:51:41;;;;;;;20.67;12.97;;;1.90;99.90;;;;;;5072086;28;20174;-78
2022/11/20 07:54:06;;;;;;;22.57;13.70;;;2.00;99.90;;;;;;5089328;28;20178;-78
2022/11/20 07:56:32;;;;;;;21.17;13.33;;;1.90;99.90;;;;;;5074195;28;20182;-78
2022/11/20 07:58:57;;;;;;;19.57;13.10;;;2.00;99.90;;;;;;5072439;28;20170;-75
2022/11/20 08:01:23;;;;;;;21.50;13.20;;;1.90;99.90;;;;;;5073439;28;20664;-78
2022/11/20 08:03:48;;;;;;;21.40;13.87;;;2.00;99.90;;;;;;5076721;28;20175;-77
2022/11/20 08:06:14;;;;;;;22.50;14.40;;;2.00;99.90;;;;;;5077508;28;20167;-76
2022/11/20 08:08:40;;;;;;;26.87;15.10;;;2.00;99.90;;;;;;5076274;28;20634;-76
2022/11/20 08:16:34;;;;;;;21.30;13.77;;;2.10;99.90;;;;;;5075748;28;20165;-77
2022/11/20 08:18:59;;;;;;;21.47;13.77;;;2.10;99.90;;;;;;5076025;28;20171;-78
2022/11/20 08:21:25;;;;;;;26.57;14.23;;;2.20;99.90;;;;;;5077714;28;20210;-78
2022/11/20 08:23:51;;;;;;;19.37;13.57;;;2.30;99.90;;;;;;5076333;28;20171;-79
2022/11/20 08:26:16;;;;;;;20.87;13.43;;;2.30;99.90;;;;;;5093467;28;20299;-79
2022/11/20 08:28:42;;;;;;;19.83;13.33;;;2.30;99.90;;;;;;5077800;28;20171;-79
2022/11/20 08:31:09;;;;;;;21.87;13.53;;;2.40;99.90;;;;;;5077695;28;20235;-79
2022/11/20 08:33:35;;;;;;;21.20;13.87;;;2.40;99.90;;;;;;5077723;28;20178;-77
2022/11/20 08:36:03;;;;;;;21.30;13.30;;;2.50;99.90;;;;;;5077994;28;20178;-78
2022/11/20 08:38:29;;;;;;;22.47;13.83;;;2.50;99.90;;;;;;5077483;28;20288;-79
2022/11/20 08:43:46;;;;;;;18.53;12.37;;;2.70;99.90;;;;;;5077936;28;20224;-79
2022/11/20 08:46:13;;;;;;;21.17;12.23;;;2.70;99.90;;;;;;5077397;28;20250;-79
2022/11/20 08:48:38;;;;;;;24.30;15.73;;;2.80;99.90;;;;;;5077376;28;20182;-77
2022/11/20 08:51:04;;;;;;;19.77;15.37;;;2.80;99.90;;;;;;5076754;28;20494;-78
2022/11/20 08:53:29;;;;;;;25.57;16.80;;;2.80;99.90;;;;;;5075669;28;20179;-79
2022/11/20 08:55:57;;;;;;;23.23;15.83;;;2.90;99.90;;;;;;5076916;28;20175;-78
2022/11/20 08:58:22;;;;;;;26.40;16.60;;;2.90;99.90;;;;;;5092087;28;20182;-77
2022/11/20 09:00:48;;;;;;;23.33;15.87;;;2.90;99.90;;;;;;5073750;28;20194;-76
2022/11/20 09:03:13;;;;;;;22.20;15.00;;;3.00;99.90;;;;;;5075313;28;20203;-76
2022/11/20 09:05:39;;;;;;;21.93;14.73;;;2.90;99.90;;;;;;5075563;28;20179;-76
2022/11/20 09:08:04;;;;;;;27.90;17.20;;;3.00;99.90;;;;;;5074811;28;20179;-76
2022/11/20 09:10:30;;;;;;;23.50;15.30;;;3.00;99.90;;;;;;5074994;28;20277;-77
2022/11/20 09:12:56;;;;;;;21.37;14.63;;;3.10;99.90;;;;;;5075547;28;20305;-78
2022/11/20 09:15:22;;;;;;;20.70;14.57;;;3.10;99.90;;;;;;5091207;28;20194;-80
2022/11/20 09:17:59;;;;;;;27.67;14.07;;;3.20;99.90;;;;;;5076695;28;20194;-77
2022/11/20 09:20:25;;;;;;;22.83;14.00;;;3.20;99.90;;;;;;5077811;28;20277;-79
2022/11/20 09:22:51;;;;;;;23.03;14.13;;;3.30;99.90;;;;;;5080142;28;20663;-79
2022/11/20 09:25:17;;;;;;;24.43;14.50;;;3.30;99.90;;;;;;5079280;28;20171;-79
2022/11/20 09:27:45;;;;;;;21.30;13.87;;;3.40;99.90;;;;;;5079616;28;20171;-79
2022/11/20 09:30:12;;;;;;;23.10;15.03;;;3.40;99.90;;;;;;5079679;28;20210;-79
2022/11/20 09:32:39;;;;;;;21.40;13.30;;;3.40;99.90;;;;;;5080281;28;20252;-78
2022/11/20 09:35:04;;;;;;;23.17;14.83;;;3.40;99.90;;;;;;5080464;28;20278;-80
2022/11/20 09:37:30;;;;;;;21.47;14.07;;;3.50;99.90;;;;;;5079590;28;20218;-80
2022/11/20 09:39:55;;;;;;;19.67;13.03;;;3.50;99.90;;;;;;5081481;28;20218;-79
2022/11/20 09:42:33;;;;;;;21.80;13.33;;;3.50;99.90;;;;;;5090323;28;20187;-78
2022/11/20 09:44:58;;;;;;;21.20;13.57;;;3.50;99.90;;;;;;5098026;28;20602;-78
2022/11/20 09:47:58;;;;;;;20.67;14.20;;;3.50;99.90;;;;;;5088486;28;20191;-79
2022/11/20 09:50:27;;;;;;;21.97;13.03;;;3.50;99.90;;;;;;5075361;28;20201;-79
2022/11/20 09:53:17;;;;;;;21.93;13.87;;;3.60;99.90;;;;;;5076337;28;20167;-79
2022/11/20 09:55:43;;;;;;;22.53;14.07;;;3.60;99.90;;;;;;5076177;28;20213;-79
2022/11/20 09:58:29;;;;;;;19.97;13.73;;;3.70;99.90;;;;;;5076509;28;20171;-79
2022/11/20 10:01:09;;;;;;;20.90;13.47;;;3.80;99.90;;;;;;5076212;28;20192;-77
2022/11/20 10:04:05;;;;;;;19.20;13.20;;;3.80;99.90;;;;;;5076456;28;20278;-78
2022/11/20 10:06:51;;;;;;;21.17;13.63;;;3.90;99.90;;;;;;5071929;28;20179;-79
2022/11/20 10:09:33;;;;;;;20.63;12.07;;;3.90;99.90;;;;;;5075080;28;20562;-76
2022/11/20 10:12:11;;;;;;;20.93;13.33;;;3.90;99.90;;;;;;5074040;28;20551;-78
2022/11/20 10:15:06;;;;;;;20.30;12.53;;;3.90;99.90;;;;;;5091079;28;20515;-76
2022/11/20 10:17:55;;;;;;;18.77;12.33;;;4.00;99.90;;;;;;5075641;28;20181;-78
2022/11/20 10:20:46;;;;;;;18.57;12.30;;;4.00;99.90;;;;;;5090767;28;20224;-79
2022/11/20 10:23:28;;;;;;;19.50;12.43;;;4.00;99.90;;;;;;5090840;28;20260;-78
2022/11/20 10:26:01;;;;;;;20.03;12.17;;;4.10;99.90;;;;;;5074418;28;20147;-78
2022/11/20 10:28:44;;;;;;;19.90;12.63;;;4.10;99.90;;;;;;5090658;28;20175;-78
2022/11/20 10:31:26;;;;;;;18.20;11.67;;;4.10;99.90;;;;;;5075959;28;20202;-78
2022/11/20 10:33:55;;;;;;;16.67;11.87;;;4.20;99.90;;;;;;5075400;28;20226;-77
2022/11/20 10:36:26;;;;;;;17.73;11.70;;;4.20;99.90;;;;;;5075528;28;20232;-78
2022/11/20 10:38:58;;;;;;;18.07;11.57;;;4.20;99.90;;;;;;5075700;28;20159;-78
2022/11/20 10:41:28;;;;;;;16.23;11.40;;;4.20;99.90;;;;;;5091223;28;20187;-79
2022/11/20 10:44:12;;;;;;;16.27;11.17;;;4.30;99.90;;;;;;5091716;28;20270;-78
2022/11/20 10:46:44;;;;;;;15.50;10.87;;;4.40;99.90;;;;;;5075742;28;20646;-77
2022/11/20 10:49:16;;;;;;;16.50;11.10;;;4.40;99.90;;;;;;5090580;28;20171;-78
2022/11/20 10:52:21;;;;;;;16.70;11.30;;;4.40;99.90;;;;;;5075479;28;20150;-78
2022/11/20 10:55:24;;;;;;;15.83;10.90;;;4.50;99.90;;;;;;5062049;28;20300;-78
2022/11/20 10:58:03;;;;;;;17.27;11.10;;;4.50;99.90;;;;;;5075895;28;20182;-78
2022/11/20 11:00:31;;;;;;;16.70;11.17;;;4.50;99.90;;;;;;5073764;28;20194;-79
2022/11/20 11:03:02;;;;;;;16.47;11.13;;;4.60;99.90;;;;;;5075654;28;20198;-78
2022/11/20 11:05:47;;;;;;;15.37;10.77;;;4.60;99.90;;;;;;5068744;28;20656;-78
2022/11/20 11:08:16;;;;;;;16.90;11.00;;;4.60;99.90;;;;;;5064065;28;20163;-78
2022/11/20 11:10:56;;;;;;;18.77;11.30;;;4.60;99.90;;;;;;5067694;28;20191;-77
2022/11/20 11:13:27;;;;;;;17.30;11.10;;;4.60;99.90;;;;;;5074401;28;20159;-78
2022/11/20 11:15:53;;;;;;;17.47;11.33;;;4.50;99.90;;;;;;5074143;28;20178;-78
2022/11/20 11:18:30;;;;;;;16.50;10.83;;;4.60;99.90;;;;;;5074611;28;20175;-78
2022/11/20 11:20:57;;;;;;;18.17;11.47;;;4.60;99.90;;;;;;5072873;28;20189;-76
2022/11/20 11:23:43;;;;;;;21.33;12.47;;;4.60;99.90;;;;;;5055865;28;20211;-77
2022/11/20 11:26:23;;;;;;;18.50;12.47;;;4.60;99.90;;;;;;5063626;28;20189;-76
2022/11/20 11:29:03;;;;;;;19.63;11.90;;;4.70;99.90;;;;;;5066468;28;20170;-75
2022/11/20 11:31:31;;;;;;;19.60;12.80;;;4.80;99.90;;;;;;5069151;28;20630;-76
2022/11/20 11:34:13;;;;;;;17.80;11.07;;;4.80;99.90;;;;;;5062810;28;20731;-75
2022/11/20 11:36:39;;;;;;;20.00;12.13;;;4.80;99.90;;;;;;5064017;28;20264;-76
2022/11/20 11:39:09;;;;;;;19.23;12.80;;;4.90;99.90;;;;;;5069013;28;20667;-76
2022/11/20 11:41:35;;;;;;;18.17;11.43;;;4.90;99.90;;;;;;5057778;28;20186;-76
2022/11/20 11:47:04;;;;;;;17.87;11.87;;;5.00;99.90;;;;;;5057907;28;20154;-77
2022/11/20 11:49:29;;;;;;;19.37;12.27;;;5.00;99.90;;;;;;5057122;28;20209;-77
2022/11/20 11:52:13;;;;;;;15.30;10.17;;;5.00;99.90;;;;;;5057448;28;20172;-76
2022/11/20 11:55:02;;;;;;;17.80;12.17;;;5.00;99.90;;;;;;5057446;28;20158;-76
2022/11/20 11:57:37;;;;;;;26.23;11.57;;;5.00;99.90;;;;;;5057433;28;20171;-76
2022/11/20 12:00:15;;;;;;;21.13;11.73;;;5.00;99.90;;;;;;5055519;28;20195;-77
2022/11/20 12:02:49;;;;;;;20.10;11.57;;;5.00;99.90;;;;;;5056399;28;20195;-77
2022/11/20 12:05:17;;;;;;;16.50;11.67;;;5.00;99.90;;;;;;5069445;28;20168;-76
2022/11/20 12:08:04;;;;;;;19.77;12.50;;;5.00;99.90;;;;;;5076232;28;20642;-74
2022/11/20 12:10:33;;;;;;;19.27;13.10;;;5.00;99.90;;;;;;5076112;28;20213;-77
2022/11/20 12:13:10;;;;;;;19.07;11.80;;;5.00;99.90;;;;;;5074742;28;20171;-77
2022/11/20 12:15:37;;;;;;;19.17;11.53;;;5.00;99.90;;;;;;5074895;28;20254;-75
2022/11/20 12:18:14;;;;;;;18.57;12.10;;;5.00;99.90;;;;;;5076360;28;20636;-77
2022/11/20 12:20:47;;;;;;;21.17;11.03;;;5.10;99.90;;;;;;5091852;28;20684;-76
2022/11/20 12:23:58;;;;;;;19.77;12.73;;;5.10;99.90;;;;;;5075890;28;20205;-77
2022/11/20 12:26:54;;;;;;;21.17;12.73;;;5.10;99.90;;;;;;5074416;28;20578;-77
2022/11/20 12:29:43;;;;;;;20.30;12.80;;;5.10;99.90;;;;;;5075354;28;20191;-77
2022/11/20 12:32:14;;;;;;;17.70;11.90;;;5.10;99.90;;;;;;5075605;28;20275;-77
2022/11/20 12:35:04;;;;;;;21.60;12.50;;;5.20;99.90;;;;;;5076624;28;20594;-78
2022/11/20 12:37:51;;;;;;;17.87;12.07;;;5.10;99.90;;;;;;5075468;28;20167;-77
2022/11/20 12:40:41;;;;;;;17.73;11.53;;;5.20;99.90;;;;;;5077335;28;20222;-77
2022/11/20 12:46:25;;;;;;;15.93;10.07;;;5.20;99.90;;;;;;5080903;28;20232;-78
2022/11/20 12:49:12;;;;;;;17.63;11.60;;;5.20;99.90;;;;;;5095322;28;20151;-77
2022/11/20 12:52:10;;;;;;;18.60;11.87;;;5.20;99.90;;;;;;5095077;28;20607;-78
2022/11/20 12:54:50;;;;;;;19.73;11.87;;;5.20;99.90;;;;;;5075018;28;20186;-77
2022/11/20 12:57:23;;;;;;;21.37;11.43;;;5.20;99.90;;;;;;5076852;28;20166;-77
2022/11/20 13:00:24;;;;;;;16.73;10.57;;;5.30;99.90;;;;;;5076852;28;20194;-77
2022/11/20 13:03:24;;;;;;;17.53;11.07;;;5.20;99.90;;;;;;5076365;28;20196;-77
2022/11/20 13:06:17;;;;;;;17.70;11.43;;;5.20;99.90;;;;;;5075822;28;20171;-77
2022/11/20 13:08:56;;;;;;;17.93;11.70;;;5.20;99.90;;;;;;5089493;28;20791;-77
2022/11/20 13:11:34;;;;;;;16.77;11.33;;;5.30;99.90;;;;;;5076593;28;20270;-78
2022/11/20 13:14:26;;;;;;;18.47;11.60;;;5.30;99.90;;;;;;5076929;28;20197;-77